createdAt,value
2022-11-16T00:02:14.122Z,25.40
2022-11-16T00:04:41.912Z,25.40
2022-11-16T00:07:09.821Z,25.40
2022-11-16T00:09:37.149Z,25.30
2022-11-16T00:12:09.755Z,25.40
2022-11-16T00:14:37.397Z,25.40
2022-11-16T00:17:05.149Z,25.40
2022-11-16T00:19:32.711Z,25.30
2022-11-16T00:21:59.836Z,25.40
2022-11-16T00:24:26.696Z,25.40
2022-11-16T00:26:56.133Z,25.30
2022-11-16T00:29:26.153Z,25.40
2022-11-16T00:31:54.688Z,25.40
2022-11-16T00:34:23.860Z,25.30
2022-11-16T00:36:50.989Z,25.30
2022-11-16T00:39:19.104Z,25.30
2022-11-16T00:41:47.563Z,25.30
2022-11-16T00:44:15.119Z,25.30
2022-11-16T00:46:42.600Z,25.30
2022-11-16T00:49:10.231Z,25.30
2022-11-16T00:51:38.202Z,25.30
2022-11-16T00:54:08.085Z,25.30
2022-11-16T00:56:35.974Z,25.30
2022-11-16T00:59:03.671Z,25.30
2022-11-16T01:01:30.759Z,25.30
2022-11-16T01:03:57.780Z,25.30
2022-11-16T01:06:24.843Z,25.30
2022-11-16T01:08:51.891Z,25.30
2022-11-16T01:11:38.763Z,25.30
2022-11-16T01:14:09.317Z,25.30
2022-11-16T01:16:36.543Z,25.30
2022-11-16T01:19:04.499Z,25.30
2022-11-16T01:21:31.606Z,25.30
2022-11-16T01:23:58.557Z,25.30
2022-11-16T01:26:26.010Z,25.30
2022-11-16T01:28:53.160Z,25.30
2022-11-16T01:31:20.549Z,25.30
2022-11-16T01:33:47.552Z,25.30
2022-11-16T01:36:15.364Z,25.30
2022-11-16T01:38:45.838Z,25.30
2022-11-16T01:41:21.231Z,25.30
2022-11-16T01:44:05.854Z,25.30
2022-11-16T01:46:33.454Z,25.30
2022-11-16T01:49:17.838Z,25.30
2022-11-16T01:51:51.555Z,25.30
2022-11-16T01:54:19.473Z,25.30
2022-11-16T01:56:50.822Z,25.20
2022-11-16T01:59:18.255Z,25.30
2022-11-16T02:01:45.302Z,25.30
2022-11-16T02:04:13.909Z,23.60
2022-11-16T02:07:04.634Z,25.30
2022-11-16T02:09:53.657Z,25.20
2022-11-16T02:12:53.670Z,25.30
2022-11-16T02:15:51.790Z,25.30
2022-11-16T02:18:43.488Z,25.30
2022-11-16T02:21:41.120Z,25.30
2022-11-16T02:24:17.001Z,25.30
2022-11-16T02:27:23.412Z,25.20
2022-11-16T02:29:56.130Z,25.30
2022-11-16T02:32:48.013Z,25.20
2022-11-16T02:35:31.233Z,25.30
2022-11-16T02:38:09.639Z,25.20
2022-11-16T02:40:41.083Z,25.20
2022-11-16T02:43:18.598Z,25.20
2022-11-16T02:45:50.759Z,25.20
2022-11-16T02:48:31.778Z,25.20
2022-11-16T02:50:58.945Z,25.20
2022-11-16T02:53:27.069Z,25.20
2022-11-16T02:55:54.050Z,25.20
2022-11-16T02:58:24.703Z,25.20
2022-11-16T03:01:09.330Z,25.30
2022-11-16T03:03:52.686Z,25.20
2022-11-16T03:06:33.014Z,25.20
2022-11-16T03:09:27.161Z,25.20
2022-11-16T03:12:01.083Z,25.20
2022-11-16T03:14:51.075Z,25.20
2022-11-16T03:17:47.826Z,25.20
2022-11-16T03:20:23.696Z,25.20
2022-11-16T03:22:56.722Z,25.20
2022-11-16T03:25:31.366Z,25.20
2022-11-16T03:28:03.759Z,25.20
2022-11-16T03:30:38.269Z,25.20
2022-11-16T03:33:25.726Z,25.20
2022-11-16T03:36:01.526Z,25.20
2022-11-16T03:38:31.443Z,25.20
2022-11-16T03:41:04.004Z,25.20
2022-11-16T03:43:33.353Z,25.20
2022-11-16T03:46:00.935Z,25.20
2022-11-16T03:48:40.011Z,25.20
2022-11-16T03:51:10.333Z,25.20
2022-11-16T03:53:37.587Z,25.20
2022-11-16T03:56:05.004Z,25.20
2022-11-16T03:58:32.351Z,25.20
2022-11-16T04:01:00.150Z,25.20
2022-11-16T04:03:27.194Z,25.20
2022-11-16T04:06:12.774Z,25.20
2022-11-16T04:08:58.444Z,25.20
2022-11-16T04:11:44.253Z,25.20
2022-11-16T04:14:38.694Z,25.20
2022-11-16T04:17:31.349Z,25.20
2022-11-16T04:20:16.802Z,25.20
2022-11-16T04:23:25.867Z,25.20
2022-11-16T04:25:53.315Z,25.20
2022-11-16T04:28:25.745Z,25.10
2022-11-16T04:31:16.166Z,25.10
2022-11-16T04:34:06.759Z,25.10
2022-11-16T04:36:52.098Z,25.10
2022-11-16T04:39:18.951Z,25.20
2022-11-16T04:42:04.159Z,25.10
2022-11-16T04:44:53.348Z,25.10
2022-11-16T04:47:20.281Z,25.10
2022-11-16T04:49:47.203Z,25.10
2022-11-16T04:52:14.129Z,25.10
2022-11-16T04:54:41.030Z,25.20
2022-11-16T04:57:08.080Z,25.10
2022-11-16T04:59:35.110Z,25.10
2022-11-16T05:02:10.720Z,25.10
2022-11-16T05:04:43.842Z,25.10
2022-11-16T05:07:14.051Z,25.20
2022-11-16T05:09:44.288Z,25.10
2022-11-16T05:12:16.322Z,25.10
2022-11-16T05:14:44.182Z,25.10
2022-11-16T05:17:12.204Z,25.10
2022-11-16T05:19:57.817Z,25.10
2022-11-16T05:22:25.611Z,25.10
2022-11-16T05:24:53.201Z,25.10
2022-11-16T05:27:24.026Z,25.00
2022-11-16T05:29:51.019Z,25.00
2022-11-16T05:32:20.497Z,25.00
2022-11-16T05:34:47.843Z,25.00
2022-11-16T05:37:17.132Z,25.10
2022-11-16T05:39:44.408Z,25.10
2022-11-16T05:42:11.310Z,25.10
2022-11-16T05:44:38.181Z,25.00
2022-11-16T05:47:05.519Z,25.10
2022-11-16T05:49:32.427Z,25.10
2022-11-16T05:51:59.370Z,25.10
2022-11-16T05:54:26.553Z,25.00
2022-11-16T05:56:55.023Z,25.10
2022-11-16T05:59:23.492Z,25.10
2022-11-16T06:01:51.204Z,25.10
2022-11-16T06:04:24.028Z,25.10
2022-11-16T06:06:51.021Z,25.10
2022-11-16T06:09:17.872Z,25.10
2022-11-16T06:11:44.891Z,25.10
2022-11-16T06:14:11.929Z,25.10
2022-11-16T06:16:38.876Z,25.10
2022-11-16T06:19:05.822Z,25.10
2022-11-16T06:21:35.019Z,25.10
2022-11-16T06:24:02.717Z,25.10
2022-11-16T06:26:29.634Z,25.10
2022-11-16T06:28:56.667Z,25.10
2022-11-16T06:31:23.788Z,25.10
2022-11-16T06:33:50.710Z,25.10
2022-11-16T06:36:17.647Z,25.10
2022-11-16T06:38:44.641Z,25.10
2022-11-16T06:41:11.539Z,25.10
2022-11-16T06:43:38.554Z,25.10
2022-11-16T06:46:05.647Z,25.10
2022-11-16T06:48:33.862Z,25.10
2022-11-16T06:51:01.531Z,25.20
2022-11-16T06:53:29.648Z,25.10
2022-11-16T06:56:03.089Z,25.20
2022-11-16T06:58:32.239Z,25.20
2022-11-16T07:01:11.069Z,25.20
2022-11-16T07:03:38.547Z,25.20
2022-11-16T07:06:09.282Z,25.20
2022-11-16T07:08:37.039Z,25.20
2022-11-16T07:11:09.309Z,25.20
2022-11-16T07:13:38.214Z,25.20
2022-11-16T07:16:08.106Z,25.20
2022-11-16T07:18:41.193Z,25.20
2022-11-16T07:21:12.566Z,25.30
2022-11-16T07:23:39.983Z,25.20
2022-11-16T07:26:09.377Z,25.30
2022-11-16T07:28:40.979Z,25.30
2022-11-16T07:31:14.997Z,25.30
2022-11-16T07:33:42.211Z,25.30
2022-11-16T07:36:15.901Z,25.30
2022-11-16T07:38:43.372Z,25.40
2022-11-16T07:41:16.796Z,25.30
2022-11-16T07:43:48.523Z,25.40
2022-11-16T07:46:47.505Z,25.40
2022-11-16T07:49:19.564Z,25.40
2022-11-16T07:51:46.887Z,25.40
2022-11-16T07:54:15.245Z,25.50
2022-11-16T07:56:42.659Z,25.50
2022-11-16T07:59:09.706Z,25.50
2022-11-16T08:01:36.697Z,25.50
2022-11-16T08:04:03.787Z,25.50
2022-11-16T08:06:32.219Z,25.50
2022-11-16T08:08:59.541Z,25.50
2022-11-16T08:11:27.635Z,25.50
2022-11-16T08:13:55.871Z,25.60
2022-11-16T08:16:23.221Z,25.60
2022-11-16T08:18:50.474Z,25.60
2022-11-16T08:21:19.155Z,25.60
2022-11-16T08:23:46.540Z,25.60
2022-11-16T08:26:22.024Z,25.60
2022-11-16T08:28:53.852Z,25.60
2022-11-16T08:31:25.426Z,25.60
2022-11-16T08:33:52.514Z,25.60
2022-11-16T08:36:20.155Z,25.60
2022-11-16T08:38:49.504Z,25.60
2022-11-16T08:41:17.751Z,25.60
2022-11-16T08:43:49.969Z,25.60
2022-11-16T08:46:17.638Z,25.60
2022-11-16T08:48:44.822Z,25.60
2022-11-16T08:51:19.550Z,25.60
2022-11-16T08:53:50.002Z,25.60
2022-11-16T08:56:18.629Z,25.60
2022-11-16T08:58:47.387Z,25.60
2022-11-16T09:01:19.055Z,25.60
2022-11-16T09:03:46.730Z,25.70
2022-11-16T09:06:14.916Z,25.60
2022-11-16T09:08:44.418Z,25.60
2022-11-16T09:11:18.709Z,25.60
2022-11-16T09:13:47.832Z,25.60
2022-11-16T09:16:16.742Z,25.70
2022-11-16T09:18:48.297Z,25.60
2022-11-16T09:21:25.331Z,25.60
2022-11-16T09:23:54.293Z,25.70
2022-11-16T09:26:23.074Z,25.60
2022-11-16T09:29:01.161Z,25.60
2022-11-16T09:31:31.900Z,25.70
2022-11-16T09:33:59.249Z,25.60
2022-11-16T09:36:29.778Z,25.60
2022-11-16T09:42:18.888Z,25.60
2022-11-16T09:45:00.865Z,25.70
2022-11-16T09:47:49.539Z,25.80
2022-11-16T09:50:49.138Z,25.70
2022-11-16T09:53:34.256Z,25.70
2022-11-16T09:56:13.696Z,25.70
2022-11-16T09:59:20.067Z,25.70
2022-11-16T10:02:24.157Z,25.70
2022-11-16T10:05:00.146Z,25.70
2022-11-16T10:07:52.645Z,25.70
2022-11-16T10:10:33.234Z,25.70
2022-11-16T10:13:23.518Z,25.70
2022-11-16T10:16:14.787Z,25.70
2022-11-16T10:19:08.083Z,25.70
2022-11-16T10:22:17.669Z,25.80
2022-11-16T10:25:19.284Z,25.80
2022-11-16T10:28:49.961Z,25.90
2022-11-16T10:32:04.265Z,25.90
2022-11-16T10:34:50.718Z,26.00
2022-11-16T10:41:50.008Z,26.10
2022-11-16T10:44:47.741Z,26.10
2022-11-16T10:47:33.973Z,26.20
2022-11-16T10:54:18.579Z,26.20
2022-11-16T10:57:00.276Z,26.20
2022-11-16T10:59:44.854Z,26.30
2022-11-16T11:02:37.297Z,26.40
2022-11-16T11:05:21.446Z,26.50
2022-11-16T11:08:06.178Z,26.60
2022-11-16T11:10:40.283Z,26.80
2022-11-16T11:13:13.831Z,27.00
2022-11-16T11:15:45.070Z,27.10
2022-11-16T11:18:19.095Z,27.20
2022-11-16T11:20:52.338Z,27.30
2022-11-16T11:23:23.651Z,27.50
2022-11-16T11:25:57.444Z,27.60
2022-11-16T11:28:37.959Z,27.70
2022-11-16T11:31:42.471Z,27.80
2022-11-16T11:34:21.774Z,27.90
2022-11-16T11:37:06.534Z,28.10
2022-11-16T11:39:37.732Z,28.20
2022-11-16T11:42:13.754Z,28.30
2022-11-16T11:44:44.933Z,28.40
2022-11-16T11:48:00.338Z,28.50
2022-11-16T11:50:40.791Z,28.60
2022-11-16T11:53:28.590Z,28.70
2022-11-16T11:55:58.807Z,28.70
2022-11-16T11:58:38.514Z,28.70
2022-11-16T12:01:25.486Z,28.70
2022-11-16T12:04:10.725Z,28.70
2022-11-16T12:07:08.879Z,28.70
2022-11-16T12:10:18.874Z,28.70
2022-11-16T12:13:03.360Z,28.70
2022-11-16T12:15:52.151Z,28.60
2022-11-16T12:18:43.731Z,28.60
2022-11-16T12:21:36.496Z,28.50
2022-11-16T12:24:23.953Z,28.40
2022-11-16T12:27:13.183Z,28.30
2022-11-16T12:30:19.830Z,28.30
2022-11-16T12:33:09.359Z,28.20
2022-11-16T12:35:48.314Z,28.10
2022-11-16T12:38:41.680Z,28.00
2022-11-16T12:41:26.824Z,27.90
2022-11-16T12:44:08.076Z,27.90
2022-11-16T12:46:55.715Z,27.80
2022-11-16T12:49:26.420Z,27.70
2022-11-16T12:51:53.224Z,27.60
2022-11-16T12:54:32.092Z,27.50
2022-11-16T12:57:30.724Z,27.50
2022-11-16T13:00:08.305Z,27.40
2022-11-16T13:02:57.024Z,27.40
2022-11-16T13:05:51.734Z,27.30
2022-11-16T13:08:39.017Z,27.20
2022-11-16T13:11:32.470Z,27.20
2022-11-16T13:14:10.806Z,27.20
2022-11-16T13:16:38.385Z,27.10
2022-11-16T13:19:13.394Z,27.10
2022-11-16T13:22:05.556Z,27.10
2022-11-16T13:24:35.275Z,27.10
2022-11-16T13:27:23.154Z,27.10
2022-11-16T13:29:59.151Z,27.00
2022-11-16T13:32:53.638Z,27.00
2022-11-16T13:35:20.992Z,27.00
2022-11-16T13:37:50.732Z,27.00
2022-11-16T13:40:25.090Z,27.00
2022-11-16T13:43:11.454Z,27.00
2022-11-16T13:45:59.831Z,27.00
2022-11-16T13:48:34.606Z,27.00
2022-11-16T13:51:09.145Z,27.00
2022-11-16T13:56:51.799Z,27.00
2022-11-16T13:59:28.254Z,27.00
2022-11-16T14:02:03.451Z,26.90
2022-11-16T14:04:40.977Z,26.90
2022-11-16T14:07:40.507Z,26.90
2022-11-16T14:10:08.165Z,26.80
2022-11-16T14:12:38.210Z,26.80
2022-11-16T14:15:24.916Z,26.80
2022-11-16T14:17:54.782Z,26.70
2022-11-16T14:20:38.958Z,26.70
2022-11-16T14:23:27.467Z,26.70
2022-11-16T14:26:18.803Z,26.70
2022-11-16T14:28:55.288Z,26.70
2022-11-16T14:31:34.410Z,26.60
2022-11-16T14:34:01.642Z,26.60
2022-11-16T14:36:55.387Z,26.60
2022-11-16T14:39:46.119Z,26.60
2022-11-16T14:42:26.958Z,26.50
2022-11-16T14:45:04.700Z,26.50
2022-11-16T14:47:37.142Z,26.50
2022-11-16T14:50:04.986Z,26.50
2022-11-16T14:52:44.729Z,26.40
2022-11-16T14:55:21.072Z,26.40
2022-11-16T14:57:48.352Z,26.40
2022-11-16T15:00:18.471Z,26.40
2022-11-16T15:03:02.597Z,26.30
2022-11-16T15:05:35.741Z,26.30
2022-11-16T15:08:21.063Z,26.30
2022-11-16T15:10:52.629Z,26.30
2022-11-16T15:13:24.165Z,26.30
2022-11-16T15:16:16.364Z,26.30
2022-11-16T15:19:00.828Z,26.30
2022-11-16T15:21:29.224Z,26.30
2022-11-16T15:26:44.477Z,26.20
2022-11-16T15:29:17.981Z,26.20
2022-11-16T15:31:45.682Z,26.20
2022-11-16T15:34:17.423Z,26.20
2022-11-16T15:36:45.353Z,26.20
2022-11-16T15:39:22.451Z,26.20
2022-11-16T15:41:50.841Z,26.20
2022-11-16T15:44:22.771Z,26.10
2022-11-16T15:46:55.016Z,26.10
2022-11-16T15:49:41.244Z,26.10
2022-11-16T15:52:08.246Z,26.10
2022-11-16T15:54:55.214Z,26.10
2022-11-16T15:57:24.554Z,26.10
2022-11-16T15:59:55.097Z,26.10
2022-11-16T16:02:30.278Z,26.10
2022-11-16T16:04:57.263Z,26.10
2022-11-16T16:07:39.462Z,26.10
2022-11-16T16:10:18.527Z,26.10
2022-11-16T16:12:51.459Z,26.10
2022-11-16T16:15:36.488Z,26.10
2022-11-16T16:18:13.974Z,26.10
2022-11-16T16:20:48.647Z,26.10
2022-11-16T16:23:16.338Z,26.20
2022-11-16T16:25:49.067Z,26.10
2022-11-16T16:28:17.185Z,26.20
2022-11-16T16:30:44.128Z,26.20
2022-11-16T16:33:19.609Z,26.20
2022-11-16T16:35:49.731Z,26.20
2022-11-16T16:38:19.280Z,26.20
2022-11-16T16:40:46.127Z,26.20
2022-11-16T16:43:13.078Z,26.20
2022-11-16T16:45:43.701Z,26.30
2022-11-16T16:48:12.632Z,26.30
2022-11-16T16:50:39.934Z,26.30
2022-11-16T16:53:07.045Z,26.30
2022-11-16T16:55:37.660Z,26.30
2022-11-16T16:58:05.443Z,26.30
2022-11-16T17:00:32.905Z,26.30
2022-11-16T17:02:59.859Z,26.30
2022-11-16T17:05:26.876Z,26.30
2022-11-16T17:07:56.813Z,26.30
2022-11-16T17:10:23.745Z,26.30
2022-11-16T17:12:56.661Z,26.30
2022-11-16T17:15:24.483Z,26.40
2022-11-16T17:17:51.446Z,26.40
2022-11-16T17:20:18.343Z,26.30
2022-11-16T17:22:45.941Z,26.40
2022-11-16T17:25:13.239Z,26.40
2022-11-16T17:27:40.490Z,26.40
2022-11-16T17:30:08.550Z,26.30
2022-11-16T17:32:37.046Z,26.40
2022-11-16T17:35:04.179Z,26.40
2022-11-16T17:37:31.055Z,26.40
2022-11-16T17:39:58.095Z,26.40
2022-11-16T17:42:25.046Z,26.40
2022-11-16T17:44:53.897Z,26.40
2022-11-16T17:47:20.805Z,26.40
2022-11-16T17:49:47.735Z,26.40
2022-11-16T17:52:14.684Z,26.30
2022-11-16T17:54:41.720Z,26.30
2022-11-16T17:57:08.600Z,26.30
2022-11-16T17:59:35.661Z,26.40
2022-11-16T18:02:02.630Z,26.30
2022-11-16T18:04:29.586Z,26.30
2022-11-16T18:06:56.764Z,26.20
2022-11-16T18:09:24.146Z,26.20
2022-11-16T18:11:51.209Z,26.20
2022-11-16T18:14:18.174Z,26.20
2022-11-16T18:16:47.811Z,26.20
2022-11-16T18:19:18.017Z,26.20
2022-11-16T18:21:46.343Z,26.10
2022-11-16T18:24:13.866Z,26.10
2022-11-16T18:26:41.512Z,26.10
2022-11-16T18:29:12.711Z,26.00
2022-11-16T18:31:39.798Z,26.00
2022-11-16T18:34:06.780Z,26.00
2022-11-16T18:36:33.765Z,26.00
2022-11-16T18:39:00.666Z,26.00
2022-11-16T18:41:29.787Z,26.00
2022-11-16T18:44:02.140Z,25.90
2022-11-16T18:46:32.241Z,25.90
2022-11-16T18:48:59.957Z,25.90
2022-11-16T18:51:28.885Z,25.90
2022-11-16T18:53:56.145Z,25.90
2022-11-16T18:56:24.885Z,25.90
2022-11-16T18:58:53.116Z,25.80
2022-11-16T19:01:24.536Z,25.80
2022-11-16T19:03:53.732Z,25.80
2022-11-16T19:06:23.134Z,25.80
2022-11-16T19:08:59.769Z,25.80
2022-11-16T19:11:29.962Z,25.80
2022-11-16T19:14:07.813Z,25.80
2022-11-16T19:16:35.362Z,25.80
2022-11-16T19:19:02.500Z,25.80
2022-11-16T19:21:29.546Z,25.80
2022-11-16T19:23:57.125Z,25.80
2022-11-16T19:26:27.419Z,25.80
2022-11-16T19:28:54.999Z,25.80
2022-11-16T19:31:25.716Z,25.80
2022-11-16T19:34:07.169Z,25.80
2022-11-16T19:36:36.756Z,25.80
2022-11-16T19:39:05.938Z,25.80
2022-11-16T19:41:33.245Z,25.80
2022-11-16T19:44:01.850Z,25.80
2022-11-16T19:46:32.131Z,25.80
2022-11-16T19:49:00.235Z,25.70
2022-11-16T19:51:33.588Z,25.80
2022-11-16T19:54:02.645Z,25.80
2022-11-16T19:56:29.902Z,25.80
2022-11-16T19:58:57.458Z,25.70
2022-11-16T20:01:29.378Z,25.80
2022-11-16T20:03:59.830Z,25.80
2022-11-16T20:06:33.870Z,25.80
2022-11-16T20:09:08.645Z,25.70
2022-11-16T20:11:38.166Z,25.70
2022-11-16T20:14:08.327Z,25.70
2022-11-16T20:16:41.214Z,25.70
2022-11-16T20:19:10.493Z,25.70
2022-11-16T20:21:40.841Z,25.70
2022-11-16T20:24:11.947Z,25.70
2022-11-16T20:26:49.319Z,25.70
2022-11-16T20:29:18.845Z,25.80
2022-11-16T20:31:46.391Z,25.70
2022-11-16T20:34:16.807Z,25.70
2022-11-16T20:36:47.248Z,25.70
2022-11-16T20:39:17.515Z,25.70
2022-11-16T20:41:45.215Z,25.70
2022-11-16T20:44:17.282Z,25.70
2022-11-16T20:46:46.327Z,25.70
2022-11-16T20:49:13.595Z,25.70
2022-11-16T20:51:40.708Z,25.70
2022-11-16T20:54:07.881Z,25.70
2022-11-16T20:56:34.870Z,25.70
2022-11-16T20:59:01.887Z,25.70
2022-11-16T21:01:31.444Z,25.70
2022-11-16T21:04:02.556Z,25.70
2022-11-16T21:06:30.830Z,25.70
2022-11-16T21:08:58.598Z,25.70
2022-11-16T21:11:30.543Z,25.70
2022-11-16T21:14:15.987Z,25.70
2022-11-16T21:16:43.467Z,25.70
2022-11-16T21:19:11.658Z,25.70
2022-11-16T21:21:40.462Z,25.70
2022-11-16T21:24:09.239Z,25.70
2022-11-16T21:26:37.246Z,25.70
2022-11-16T21:29:07.126Z,25.70
2022-11-16T21:31:36.497Z,25.70
2022-11-16T21:34:04.724Z,25.60
2022-11-16T21:36:33.303Z,25.70
2022-11-16T21:39:00.504Z,25.70
2022-11-16T21:41:27.899Z,25.60
2022-11-16T21:43:54.993Z,25.70
2022-11-16T21:46:25.060Z,25.70
2022-11-16T21:48:54.247Z,25.60
2022-11-16T21:51:25.198Z,25.60
2022-11-16T21:53:52.584Z,25.60
2022-11-16T21:56:22.527Z,25.60
2022-11-16T21:58:55.489Z,25.60
2022-11-16T22:01:23.969Z,25.60
2022-11-16T22:04:10.981Z,25.60
2022-11-16T22:06:56.847Z,25.60
2022-11-16T22:09:23.841Z,25.60
2022-11-16T22:11:50.805Z,25.60
2022-11-16T22:14:17.858Z,25.60
2022-11-16T22:16:44.782Z,25.60
2022-11-16T22:19:11.654Z,25.60
2022-11-16T22:21:38.509Z,25.60
2022-11-16T22:24:05.866Z,25.60
2022-11-16T22:26:32.830Z,25.60
2022-11-16T22:28:59.798Z,25.60
2022-11-16T22:31:26.712Z,25.60
2022-11-16T22:33:53.828Z,25.60
2022-11-16T22:36:20.956Z,25.60
2022-11-16T22:38:47.875Z,25.50
2022-11-16T22:41:14.962Z,25.50
2022-11-16T22:43:41.786Z,25.50
2022-11-16T22:46:11.115Z,25.60
2022-11-16T22:48:40.173Z,25.30
2022-11-16T22:51:26.503Z,25.50
2022-11-16T22:54:02.761Z,25.50
2022-11-16T22:56:32.894Z,25.50
2022-11-16T22:59:05.332Z,25.40
2022-11-16T23:01:32.953Z,25.40
2022-11-16T23:03:59.983Z,25.40
2022-11-16T23:06:27.276Z,25.40
2022-11-16T23:08:54.306Z,25.40
2022-11-16T23:11:42.962Z,25.40
2022-11-16T23:14:34.962Z,25.40
2022-11-16T23:17:03.620Z,25.40
2022-11-16T23:19:49.307Z,25.30
2022-11-16T23:22:38.262Z,25.30
2022-11-16T23:25:28.045Z,25.40
2022-11-16T23:28:16.048Z,25.30
2022-11-16T23:30:43.509Z,25.40
2022-11-16T23:33:11.490Z,25.30
2022-11-16T23:35:38.538Z,25.30
2022-11-16T23:38:08.078Z,25.30
2022-11-16T23:40:40.278Z,25.30
2022-11-16T23:43:28.946Z,25.30
2022-11-16T23:45:55.816Z,25.30
2022-11-16T23:48:22.848Z,25.30
2022-11-16T23:50:49.718Z,25.30
2022-11-16T23:53:16.581Z,25.30
2022-11-16T23:55:43.531Z,25.30
2022-11-16T23:58:14.183Z,25.30
